MSC Ines — 3EFZ3 — position and weather

sailwx.info

Track history (hours):
 
Tides and Currents Weather Stations Pressure Air Temp Water Temp Dewpoint Dewpoint Depression Visibility Wind Speed Wind Dir Waves Ship Positions

MSC Ines

Last reported at 2014-Oct-02 08:22 UTC. Time now 2014-Oct-02 14:30 UTC.
Position N 23°26' E 117°46'.

Length 349 m; draft 12 m.

Type: Ship (hazmat cat A). MMSI: 356112000.

Date/timePositionNaut miles runAvg speedWind from/ knotsBaromVisibWave heightAir tempDewpointWater temp
2014-Oct-02 08:22N 23°26' E 117°46'1619.2
2014-Oct-02 07:33N 23°36' E 117°58'1919.4
2014-Oct-02 06:33N 23°48' E 118°15'2019.5
2014-Oct-02 05:33N 24°01' E 118°31'4019.2
2014-Oct-02 03:27N 24°26' E 119°06'1719.1
2014-Oct-02 02:33N 24°37' E 119°20'38516.7
2014-Oct-01 03:32N 30°13' E 122°53'1818.3
2014-Oct-01 02:33N 30°26' E 122°39'1817.8
2014-Oct-01 01:33N 30°33' E 122°19'1413.3
2014-Oct-01 00:29N 30°37' E 122°04'1 1.0
2014-Sep-30 23:20N 30°38' E 122°03'0 0.0
2014-Sep-30 12:08N 30°38' E 122°03'1 1.4
2014-Sep-30 11:32N 30°37' E 122°03'1010.2
2014-Sep-30 10:33N 30°33' E 122°14'7 7.0
2014-Sep-30 09:33N 30°33' E 122°22'6 5.7
2014-Sep-30 08:33N 30°31' E 122°29'1010.1
2014-Sep-30 07:32N 30°25' E 122°39'0 0.1
2014-Sep-30 05:15N 30°26' E 122°38'0 0.1
2014-Sep-30 04:33N 30°25' E 122°38'1 0.5
2014-Sep-30 02:27N 30°26' E 122°39'0 0.1
2014-Sep-29 23:21N 30°26' E 122°39'0 0.0
2014-Sep-29 22:33N 30°26' E 122°39'0 0.1
2014-Sep-29 19:09N 30°27' E 122°39'0 0.1
2014-Sep-29 18:33N 30°27' E 122°39'0 0.1
2014-Sep-29 14:21N 30°26' E 122°39'0 0.1
2014-Sep-29 13:09N 30°26' E 122°39'1 0.9
2014-Sep-29 12:33N 30°26' E 122°40'2 0.4
2014-Sep-29 08:33N 30°26' E 122°42'1212.1
2014-Sep-29 07:33N 30°30' E 122°55'1715.9
2014-Sep-29 06:28N 30°40' E 123°11'1313.7
2014-Sep-29 05:33N 30°47' E 123°24'  
Track history (hours):
 
Tides and Currents Weather Stations Pressure Air Temp Water Temp Dewpoint Dewpoint Depression Visibility Wind Speed Wind Dir Waves Ship Positions

MSC Ines

Last reported at 2014-Oct-02 08:22 UTC. Time now 2014-Oct-02 14:30 UTC.
Position N 23°26' E 117°46'.

Length 349 m; draft 12 m.

Type: Ship (hazmat cat A). MMSI: 356112000.

Date/timePositionNaut miles runAvg speedWind from/ knotsBaromVisibWave heightAir tempDewpointWater temp
2014-Oct-02 08:22N 23°26' E 117°46'1619.2
2014-Oct-02 07:33N 23°36' E 117°58'1919.4
2014-Oct-02 06:33N 23°48' E 118°15'2019.5
2014-Oct-02 05:33N 24°01' E 118°31'4019.2
2014-Oct-02 03:27N 24°26' E 119°06'1719.1
2014-Oct-02 02:33N 24°37' E 119°20'38516.7
2014-Oct-01 03:32N 30°13' E 122°53'1818.3
2014-Oct-01 02:33N 30°26' E 122°39'1817.8
2014-Oct-01 01:33N 30°33' E 122°19'1413.3
2014-Oct-01 00:29N 30°37' E 122°04'1 1.0
2014-Sep-30 23:20N 30°38' E 122°03'0 0.0
2014-Sep-30 12:08N 30°38' E 122°03'1 1.4
2014-Sep-30 11:32N 30°37' E 122°03'1010.2
2014-Sep-30 10:33N 30°33' E 122°14'7 7.0
2014-Sep-30 09:33N 30°33' E 122°22'6 5.7
2014-Sep-30 08:33N 30°31' E 122°29'1010.1
2014-Sep-30 07:32N 30°25' E 122°39'0 0.1
2014-Sep-30 05:15N 30°26' E 122°38'0 0.1
2014-Sep-30 04:33N 30°25' E 122°38'1 0.5
2014-Sep-30 02:27N 30°26' E 122°39'0 0.1
2014-Sep-29 23:21N 30°26' E 122°39'0 0.0
2014-Sep-29 22:33N 30°26' E 122°39'0 0.1
2014-Sep-29 19:09N 30°27' E 122°39'0 0.1
2014-Sep-29 18:33N 30°27' E 122°39'0 0.1
2014-Sep-29 14:21N 30°26' E 122°39'0 0.1
2014-Sep-29 13:09N 30°26' E 122°39'1 0.9
2014-Sep-29 12:33N 30°26' E 122°40'2 0.4
2014-Sep-29 08:33N 30°26' E 122°42'1212.1
2014-Sep-29 07:33N 30°30' E 122°55'1715.9
2014-Sep-29 06:28N 30°40' E 123°11'1313.7
2014-Sep-29 05:33N 30°47' E 123°24'  

Dump ship's entire track history